createdAt,value
2023-02-17T00:01:33.570Z,69.10
2023-02-17T00:04:01.403Z,70.63
2023-02-17T00:06:30.893Z,70.83
2023-02-17T00:09:00.057Z,70.00
2023-02-17T00:11:28.494Z,68.33
2023-02-17T00:13:56.536Z,69.90
2023-02-17T00:16:26.185Z,72.67
2023-02-17T00:19:00.443Z,72.63
2023-02-17T00:21:31.182Z,71.27
2023-02-17T00:23:59.957Z,69.97
2023-02-17T00:26:27.182Z,72.40
2023-02-17T00:28:55.110Z,71.33
2023-02-17T00:31:23.971Z,71.03
2023-02-17T00:33:56.005Z,70.43
2023-02-17T00:36:23.713Z,69.57
2023-02-17T00:38:51.617Z,72.77
2023-02-17T00:41:19.515Z,70.13
2023-02-17T00:43:48.024Z,71.93
2023-02-17T00:46:17.266Z,70.13
2023-02-17T00:48:46.283Z,73.20
2023-02-17T00:51:14.427Z,69.73
2023-02-17T00:53:42.043Z,71.57
2023-02-17T00:56:10.009Z,72.63
2023-02-17T00:58:38.144Z,69.37
2023-02-17T01:01:05.604Z,72.43
2023-02-17T01:03:33.058Z,71.63
2023-02-17T01:06:05.434Z,73.90
2023-02-17T01:08:33.987Z,72.77
2023-02-17T01:11:01.270Z,70.00
2023-02-17T01:13:29.071Z,72.13
2023-02-17T01:15:56.295Z,70.97
2023-02-17T01:18:24.563Z,73.47
2023-02-17T01:20:52.703Z,72.87
2023-02-17T01:23:20.268Z,71.83
2023-02-17T01:25:49.002Z,72.20
2023-02-17T01:28:21.863Z,71.13
2023-02-17T01:30:49.821Z,73.90
2023-02-17T01:33:17.398Z,69.23
2023-02-17T01:35:46.014Z,71.60
2023-02-17T01:38:13.552Z,71.20
2023-02-17T01:40:49.740Z,72.73
2023-02-17T01:43:18.048Z,70.90
2023-02-17T01:46:07.134Z,71.60
2023-02-17T01:48:43.475Z,71.77
2023-02-17T01:51:19.536Z,70.90
2023-02-17T01:53:55.976Z,70.77
2023-02-17T01:56:25.025Z,72.13
2023-02-17T01:59:04.028Z,72.70
2023-02-17T02:01:32.493Z,70.70
2023-02-17T02:04:03.846Z,72.40
2023-02-17T02:06:32.391Z,72.43
2023-02-17T02:09:18.025Z,69.20
2023-02-17T02:11:47.368Z,71.10
2023-02-17T02:14:18.764Z,71.07
2023-02-17T02:16:49.644Z,71.93
2023-02-17T02:19:58.375Z,71.50
2023-02-17T02:23:03.743Z,73.50
2023-02-17T02:26:04.943Z,71.23
2023-02-17T02:29:09.189Z,70.30
2023-02-17T02:31:57.190Z,71.73
2023-02-17T02:34:43.558Z,70.60
2023-02-17T02:37:25.287Z,70.17
2023-02-17T02:39:55.490Z,72.83
2023-02-17T02:42:24.691Z,68.87
2023-02-17T02:44:52.292Z,71.50
2023-02-17T02:47:59.613Z,71.37
2023-02-17T02:50:54.548Z,70.77
2023-02-17T02:53:50.996Z,70.40
2023-02-17T02:56:36.715Z,70.40
2023-02-17T02:59:36.577Z,69.57
2023-02-17T03:02:18.673Z,72.23
2023-02-17T03:05:12.854Z,72.07
2023-02-17T03:07:46.560Z,68.40
2023-02-17T03:10:14.731Z,71.57
2023-02-17T03:12:42.125Z,71.20
2023-02-17T03:15:27.884Z,71.43
2023-02-17T03:18:01.614Z,71.90
2023-02-17T03:20:36.625Z,71.43
2023-02-17T03:23:05.611Z,69.53
2023-02-17T03:25:32.840Z,73.63
2023-02-17T03:28:00.706Z,69.83
2023-02-17T03:30:28.239Z,71.10
2023-02-17T03:32:55.442Z,67.97
2023-02-17T03:35:22.521Z,70.07
2023-02-17T03:37:50.098Z,70.53
2023-02-17T03:40:17.641Z,72.07
2023-02-17T03:42:45.352Z,69.23
2023-02-17T03:45:12.830Z,74.03
2023-02-17T03:47:40.266Z,71.60
2023-02-17T03:50:10.263Z,72.10
2023-02-17T03:52:37.858Z,69.23
2023-02-17T03:55:05.431Z,73.03
2023-02-17T03:57:34.830Z,70.13
2023-02-17T04:00:02.316Z,68.20
2023-02-17T04:02:41.600Z,70.83
2023-02-17T04:05:11.005Z,68.93
2023-02-17T04:07:38.666Z,71.13
2023-02-17T04:10:09.291Z,70.27
2023-02-17T04:12:37.151Z,69.00
2023-02-17T04:15:04.505Z,69.67
2023-02-17T04:17:31.984Z,71.40
2023-02-17T04:19:59.472Z,75.87
2023-02-17T04:22:26.917Z,83.70
2023-02-17T04:24:54.355Z,75.57
2023-02-17T04:27:21.741Z,72.10
2023-02-17T04:29:48.776Z,71.37
2023-02-17T04:32:16.230Z,73.50
2023-02-17T04:34:43.644Z,73.00
2023-02-17T04:37:11.117Z,73.83
2023-02-17T04:39:38.136Z,72.83
2023-02-17T04:42:05.578Z,71.07
2023-02-17T04:44:32.720Z,72.07
2023-02-17T04:46:59.755Z,69.00
2023-02-17T04:49:26.767Z,71.13
2023-02-17T04:51:53.803Z,74.50
2023-02-17T04:54:22.872Z,72.13
2023-02-17T04:56:50.332Z,71.13
2023-02-17T04:59:17.750Z,71.63
2023-02-17T05:01:45.204Z,72.70
2023-02-17T05:04:12.662Z,70.40
2023-02-17T05:06:40.116Z,69.83
2023-02-17T05:09:07.202Z,72.63
2023-02-17T05:11:34.624Z,71.53
2023-02-17T05:14:02.034Z,70.20
2023-02-17T05:16:29.533Z,69.53
2023-02-17T05:18:57.014Z,70.33
2023-02-17T05:21:24.430Z,73.93
2023-02-17T05:23:51.505Z,74.10
2023-02-17T05:26:18.955Z,79.23
2023-02-17T05:28:46.383Z,74.50
2023-02-17T05:31:14.003Z,73.70
2023-02-17T05:33:41.446Z,76.27
2023-02-17T05:36:10.703Z,73.07
2023-02-17T05:38:39.501Z,72.23
2023-02-17T05:41:07.048Z,71.00
2023-02-17T05:43:34.155Z,73.17
2023-02-17T05:46:06.387Z,73.93
2023-02-17T05:48:34.391Z,75.90
2023-02-17T05:51:01.959Z,74.63
2023-02-17T05:53:32.497Z,72.37
2023-02-17T05:55:59.954Z,74.27
2023-02-17T05:58:27.445Z,71.97
2023-02-17T06:00:54.868Z,72.07
2023-02-17T06:03:21.956Z,72.10
2023-02-17T06:05:49.530Z,69.87
2023-02-17T06:08:16.950Z,71.70
2023-02-17T06:10:44.023Z,72.17
2023-02-17T06:13:11.426Z,71.73
2023-02-17T06:15:38.460Z,70.50
2023-02-17T06:18:05.601Z,70.30
2023-02-17T06:20:32.701Z,71.30
2023-02-17T06:23:00.149Z,72.30
2023-02-17T06:25:27.603Z,71.13
2023-02-17T06:27:55.069Z,71.60
2023-02-17T06:30:22.251Z,71.77
2023-02-17T06:32:49.963Z,70.73
2023-02-17T06:35:17.192Z,70.23
2023-02-17T06:37:44.618Z,71.07
2023-02-17T06:40:12.264Z,69.57
2023-02-17T06:42:39.742Z,72.17
2023-02-17T06:45:07.422Z,70.80
2023-02-17T06:47:35.291Z,73.43
2023-02-17T06:50:02.404Z,91.80
2023-02-17T06:52:29.898Z,82.37
2023-02-17T06:54:56.952Z,69.93
2023-02-17T06:57:24.054Z,71.43
2023-02-17T06:59:51.496Z,72.23
2023-02-17T07:02:19.042Z,73.07
2023-02-17T07:04:46.571Z,71.77
2023-02-17T07:07:14.039Z,73.33
2023-02-17T07:09:41.879Z,72.97
2023-02-17T07:12:09.011Z,73.33
2023-02-17T07:14:36.930Z,70.80
2023-02-17T07:17:04.674Z,72.60
2023-02-17T07:19:32.259Z,70.50
2023-02-17T07:21:59.657Z,71.63
2023-02-17T07:24:26.944Z,70.20
2023-02-17T07:26:56.176Z,72.07
2023-02-17T07:29:23.881Z,72.77
2023-02-17T07:31:51.378Z,72.67
2023-02-17T07:34:18.891Z,71.73
2023-02-17T07:36:46.323Z,71.70
2023-02-17T07:39:13.869Z,70.80
2023-02-17T07:41:40.959Z,71.00
2023-02-17T07:44:10.552Z,81.57
2023-02-17T07:46:39.860Z,71.53
2023-02-17T07:49:07.458Z,70.70
2023-02-17T07:51:35.249Z,70.60
2023-02-17T07:54:03.036Z,68.20
2023-02-17T07:56:31.054Z,71.73
2023-02-17T07:58:58.495Z,70.70
2023-02-17T08:01:26.354Z,68.33
2023-02-17T08:03:54.175Z,70.43
2023-02-17T08:06:24.365Z,71.47
2023-02-17T08:09:11.337Z,67.87
2023-02-17T08:11:58.091Z,73.20
2023-02-17T08:14:28.440Z,71.30
2023-02-17T08:16:56.249Z,72.47
2023-02-17T08:19:23.650Z,72.87
2023-02-17T08:21:51.108Z,70.90
2023-02-17T08:24:19.773Z,70.80
2023-02-17T08:26:47.752Z,74.47
2023-02-17T08:29:15.242Z,72.37
2023-02-17T08:31:43.286Z,72.50
2023-02-17T08:34:13.303Z,68.20
2023-02-17T08:36:41.093Z,70.23
2023-02-17T08:39:16.680Z,71.53
2023-02-17T08:41:44.966Z,67.50
2023-02-17T08:44:16.799Z,73.00
2023-02-17T08:46:45.390Z,70.40
2023-02-17T08:49:13.576Z,70.60
2023-02-17T08:51:40.962Z,67.63
2023-02-17T08:54:10.322Z,70.10
2023-02-17T08:56:39.786Z,71.70
2023-02-17T08:59:08.648Z,70.97
2023-02-17T09:01:37.646Z,70.93
2023-02-17T09:04:08.274Z,72.13
2023-02-17T09:06:43.520Z,70.03
2023-02-17T09:09:14.149Z,70.33
2023-02-17T09:11:41.525Z,69.53
2023-02-17T09:14:09.658Z,68.40
2023-02-17T09:16:41.124Z,69.03
2023-02-17T09:19:08.780Z,69.13
2023-02-17T09:21:35.910Z,70.07
2023-02-17T09:24:02.977Z,69.37
2023-02-17T09:26:30.462Z,71.07
2023-02-17T09:28:58.177Z,70.40
2023-02-17T09:31:27.369Z,68.77
2023-02-17T09:33:55.379Z,72.77
2023-02-17T09:36:29.484Z,71.77
2023-02-17T09:38:57.606Z,70.60
2023-02-17T09:41:38.443Z,79.50
2023-02-17T09:44:08.238Z,71.00
2023-02-17T09:47:10.333Z,76.17
2023-02-17T09:49:51.800Z,69.67
2023-02-17T09:52:28.556Z,70.20
2023-02-17T09:55:11.017Z,72.40
2023-02-17T09:57:53.577Z,91.73
2023-02-17T10:00:47.595Z,70.77
2023-02-17T10:03:38.376Z,71.40
2023-02-17T10:06:44.365Z,70.20
2023-02-17T10:09:28.123Z,67.83
2023-02-17T10:12:16.074Z,67.47
2023-02-17T10:15:05.820Z,73.87
2023-02-17T10:18:00.971Z,69.37
2023-02-17T10:20:35.204Z,70.03
2023-02-17T10:23:10.677Z,70.57
2023-02-17T10:25:55.694Z,72.40
2023-02-17T10:28:36.017Z,71.60
2023-02-17T10:31:46.751Z,70.93
2023-02-17T10:34:37.240Z,72.30
2023-02-17T10:37:22.344Z,70.83
2023-02-17T10:39:57.049Z,68.73
2023-02-17T10:42:35.208Z,71.03
2023-02-17T10:45:21.970Z,71.43
2023-02-17T10:47:49.416Z,69.70
2023-02-17T10:50:24.365Z,71.43
2023-02-17T10:52:52.084Z,70.30
2023-02-17T10:55:39.917Z,68.47
2023-02-17T10:58:31.532Z,69.43
2023-02-17T11:00:59.086Z,71.50
2023-02-17T11:03:34.045Z,66.83
2023-02-17T11:06:22.390Z,72.97
2023-02-17T11:08:50.934Z,70.20
2023-02-17T11:11:28.300Z,69.17
2023-02-17T11:14:19.701Z,70.70
2023-02-17T11:16:59.454Z,70.33
2023-02-17T11:19:30.697Z,70.63
2023-02-17T11:22:00.138Z,72.07
2023-02-17T11:24:30.357Z,68.90
2023-02-17T11:27:04.860Z,76.57
2023-02-17T11:29:34.162Z,71.00
2023-02-17T11:32:09.056Z,69.83
2023-02-17T11:34:40.804Z,71.90
2023-02-17T11:37:13.909Z,70.60
2023-02-17T11:39:42.611Z,73.17
2023-02-17T11:42:32.162Z,72.57
2023-02-17T11:45:01.536Z,72.03
2023-02-17T11:47:50.124Z,70.93
2023-02-17T11:50:41.632Z,72.70
2023-02-17T11:53:43.687Z,73.13
2023-02-17T11:56:18.197Z,69.87
2023-02-17T11:59:11.511Z,72.53
2023-02-17T12:01:53.634Z,71.87
2023-02-17T12:04:25.231Z,69.73
2023-02-17T12:07:33.280Z,72.00
2023-02-17T12:10:23.872Z,70.67
2023-02-17T12:13:32.556Z,72.03
2023-02-17T12:16:02.661Z,70.23
2023-02-17T12:18:38.494Z,71.53
2023-02-17T12:21:24.166Z,69.07
2023-02-17T12:24:10.258Z,67.57
2023-02-17T12:27:08.064Z,68.13
2023-02-17T12:29:47.653Z,71.13
2023-02-17T12:33:13.572Z,68.50
2023-02-17T12:35:59.122Z,65.87
2023-02-17T12:38:42.193Z,65.80
2023-02-17T12:41:58.461Z,67.07
2023-02-17T12:44:32.022Z,69.07
2023-02-17T12:47:09.914Z,67.70
2023-02-17T12:49:48.991Z,70.57
2023-02-17T12:52:34.120Z,68.40
2023-02-17T12:55:13.774Z,67.10
2023-02-17T12:57:56.176Z,87.83
2023-02-17T13:00:34.826Z,67.27
2023-02-17T13:03:03.889Z,65.90
2023-02-17T13:05:46.472Z,66.33
2023-02-17T13:08:44.784Z,65.80
2023-02-17T13:11:25.978Z,65.10
2023-02-17T13:13:53.436Z,68.47
2023-02-17T13:16:20.968Z,64.80
2023-02-17T13:18:51.347Z,65.23
2023-02-17T13:21:25.113Z,65.37
2023-02-17T13:24:36.528Z,66.23
2023-02-17T13:27:37.036Z,65.03
2023-02-17T13:30:22.742Z,63.53
2023-02-17T13:33:07.151Z,64.83
2023-02-17T13:35:37.357Z,62.63
2023-02-17T13:38:05.001Z,62.13
2023-02-17T13:40:40.607Z,62.57
2023-02-17T13:43:19.969Z,62.70
2023-02-17T13:46:01.687Z,65.20
2023-02-17T13:48:36.250Z,87.60
2023-02-17T13:51:06.797Z,64.73
2023-02-17T13:53:40.028Z,80.77
2023-02-17T13:56:28.810Z,73.30
2023-02-17T13:59:18.362Z,70.07
2023-02-17T14:01:46.541Z,63.13
2023-02-17T14:04:28.379Z,64.80
2023-02-17T14:06:59.469Z,61.93
2023-02-17T14:09:30.970Z,61.27
2023-02-17T14:12:02.322Z,66.47
2023-02-17T14:14:37.198Z,66.80
2023-02-17T14:17:26.118Z,62.13
2023-02-17T14:19:53.616Z,64.53
2023-02-17T14:22:31.628Z,73.23
2023-02-17T14:25:13.767Z,62.47
2023-02-17T14:27:48.707Z,64.00
2023-02-17T14:30:28.436Z,62.43
2023-02-17T14:33:17.960Z,63.00
2023-02-17T14:35:54.063Z,72.47
2023-02-17T14:38:37.614Z,63.80
2023-02-17T14:41:09.463Z,63.17
2023-02-17T14:43:37.136Z,62.10
2023-02-17T14:46:04.703Z,64.73
2023-02-17T14:48:31.839Z,69.33
2023-02-17T14:50:59.324Z,63.40
2023-02-17T14:53:33.711Z,65.07
2023-02-17T14:56:12.702Z,63.63
2023-02-17T14:58:40.035Z,62.60
2023-02-17T15:01:07.504Z,65.20
2023-02-17T15:03:34.941Z,86.77
2023-02-17T15:06:02.669Z,65.73
2023-02-17T15:08:35.077Z,65.33
2023-02-17T15:11:03.359Z,61.93
2023-02-17T15:13:31.894Z,63.17
2023-02-17T15:15:59.638Z,63.97
2023-02-17T15:18:28.236Z,65.40
2023-02-17T15:20:55.572Z,64.23
2023-02-17T15:23:26.320Z,64.43
2023-02-17T15:25:55.499Z,64.13
2023-02-17T15:28:22.801Z,63.50
2023-02-17T15:30:54.557Z,64.77
2023-02-17T15:33:23.966Z,63.83
2023-02-17T15:35:53.736Z,66.50
2023-02-17T15:38:22.963Z,62.30
2023-02-17T15:40:50.665Z,63.73
2023-02-17T15:43:20.853Z,63.97
2023-02-17T15:45:48.147Z,65.97
2023-02-17T15:48:25.361Z,65.33
2023-02-17T15:50:53.334Z,66.43
2023-02-17T15:53:20.409Z,64.33
2023-02-17T15:55:48.347Z,66.20
2023-02-17T15:58:21.941Z,75.90
2023-02-17T16:00:51.180Z,127.20
2023-02-17T16:03:19.093Z,150.73
2023-02-17T16:05:46.684Z,64.07
2023-02-17T16:08:14.151Z,63.30
2023-02-17T16:10:42.551Z,63.10
2023-02-17T16:13:16.737Z,75.63
2023-02-17T16:15:44.616Z,63.37
2023-02-17T16:18:22.404Z,64.83
2023-02-17T16:20:51.590Z,62.97
2023-02-17T16:23:18.742Z,61.70
2023-02-17T16:25:47.345Z,61.57
2023-02-17T16:28:20.542Z,61.60
2023-02-17T16:30:49.483Z,60.73
2023-02-17T16:33:18.253Z,61.20
2023-02-17T16:35:46.089Z,61.57
2023-02-17T16:38:22.803Z,62.30
2023-02-17T16:40:52.858Z,61.73
2023-02-17T16:43:27.627Z,62.67
2023-02-17T16:46:01.855Z,63.50
2023-02-17T16:48:33.885Z,60.90
2023-02-17T16:51:01.137Z,62.47
2023-02-17T16:53:28.570Z,60.83
2023-02-17T16:55:56.659Z,90.60
2023-02-17T16:58:26.324Z,64.60
2023-02-17T17:00:56.015Z,64.47
2023-02-17T17:03:23.604Z,68.10
2023-02-17T17:05:52.979Z,65.13
2023-02-17T17:08:21.919Z,62.57
2023-02-17T17:10:49.875Z,61.93
2023-02-17T17:13:18.491Z,73.83
2023-02-17T17:15:46.364Z,105.30
2023-02-17T17:18:21.037Z,62.07
2023-02-17T17:20:48.979Z,83.10
2023-02-17T17:23:16.903Z,78.97
2023-02-17T17:25:46.871Z,62.23
2023-02-17T17:28:19.697Z,63.83
2023-02-17T17:30:47.533Z,65.17
2023-02-17T17:33:15.461Z,61.33
2023-02-17T17:35:43.353Z,67.53
2023-02-17T17:38:15.608Z,61.00
2023-02-17T17:40:53.194Z,60.40
2023-02-17T17:43:22.266Z,61.60
2023-02-17T17:45:50.537Z,62.90
2023-02-17T17:48:18.616Z,59.03
2023-02-17T17:50:51.357Z,61.27
2023-02-17T17:53:18.794Z,59.23
2023-02-17T17:55:48.208Z,59.90
2023-02-17T17:58:17.203Z,60.57
2023-02-17T18:00:44.670Z,61.47
2023-02-17T18:03:12.370Z,60.37
2023-02-17T18:05:39.822Z,65.83
2023-02-17T18:08:09.156Z,59.70
2023-02-17T18:10:39.097Z,64.73
2023-02-17T18:13:08.534Z,59.27
2023-02-17T18:15:35.659Z,56.83
2023-02-17T18:18:03.468Z,56.27
2023-02-17T18:20:31.379Z,55.63
2023-02-17T18:22:58.787Z,58.87
2023-02-17T18:25:26.047Z,60.17
2023-02-17T18:27:53.101Z,59.27
2023-02-17T18:30:23.820Z,65.53
2023-02-17T18:32:51.820Z,59.10
2023-02-17T18:35:20.246Z,59.73
2023-02-17T18:37:47.769Z,62.07
2023-02-17T18:40:19.142Z,61.23
2023-02-17T18:42:46.659Z,65.37
2023-02-17T18:45:15.789Z,65.77
2023-02-17T18:47:44.179Z,60.03
2023-02-17T18:50:13.074Z,71.57
2023-02-17T18:52:41.069Z,62.20
2023-02-17T18:55:09.754Z,59.87
2023-02-17T18:57:37.649Z,77.37
2023-02-17T19:00:09.534Z,63.53
2023-02-17T19:02:38.166Z,60.17
2023-02-17T19:05:08.514Z,59.50
2023-02-17T19:07:35.973Z,90.53
2023-02-17T19:10:03.678Z,60.17
2023-02-17T19:12:31.174Z,69.13
2023-02-17T19:14:59.343Z,66.27
2023-02-17T19:17:26.508Z,57.97
2023-02-17T19:19:53.540Z,59.20
2023-02-17T19:22:21.092Z,59.00
2023-02-17T19:24:52.618Z,60.80
2023-02-17T19:27:20.619Z,59.17
2023-02-17T19:29:48.034Z,65.93
2023-02-17T19:32:15.604Z,68.50
2023-02-17T19:34:42.709Z,59.03
2023-02-17T19:37:10.218Z,60.33
2023-02-17T19:39:37.263Z,59.17
2023-02-17T19:42:05.068Z,60.07
2023-02-17T19:44:32.715Z,58.90
2023-02-17T19:47:00.284Z,58.47
2023-02-17T19:49:27.315Z,60.30
2023-02-17T19:51:55.880Z,60.13
2023-02-17T19:54:24.448Z,60.17
2023-02-17T19:56:52.072Z,58.70
2023-02-17T19:59:19.878Z,60.23
2023-02-17T20:01:46.977Z,58.07
2023-02-17T20:04:14.421Z,58.93
2023-02-17T20:06:45.743Z,60.27
2023-02-17T20:09:21.236Z,59.93
2023-02-17T20:11:52.971Z,59.43
2023-02-17T20:14:21.609Z,59.67
2023-02-17T20:16:49.276Z,60.20
2023-02-17T20:19:16.367Z,59.60
2023-02-17T20:21:45.863Z,60.53
2023-02-17T20:24:14.267Z,61.30
2023-02-17T20:26:45.312Z,60.63
2023-02-17T20:29:13.705Z,60.03
2023-02-17T20:31:41.754Z,60.37
2023-02-17T20:34:29.080Z,59.90
2023-02-17T20:36:57.922Z,60.57
2023-02-17T20:39:28.101Z,60.50
2023-02-17T20:41:56.552Z,60.87
2023-02-17T20:44:27.757Z,59.57
2023-02-17T20:46:56.031Z,59.50
2023-02-17T20:49:23.893Z,59.20
2023-02-17T20:51:51.221Z,59.00
2023-02-17T20:54:18.775Z,60.73
2023-02-17T20:56:47.622Z,59.07
2023-02-17T20:59:15.407Z,58.37
2023-02-17T21:01:43.212Z,60.37
2023-02-17T21:04:11.123Z,62.23
2023-02-17T21:06:41.353Z,60.30
2023-02-17T21:09:15.166Z,62.93
2023-02-17T21:11:42.320Z,59.63
2023-02-17T21:14:09.837Z,59.33
2023-02-17T21:16:37.071Z,59.53
2023-02-17T21:19:05.413Z,59.60
2023-02-17T21:21:33.357Z,57.93
2023-02-17T21:24:00.897Z,60.20
2023-02-17T21:26:28.512Z,57.53
2023-02-17T21:28:55.999Z,56.57
2023-02-17T21:31:23.209Z,57.60
2023-02-17T21:33:50.424Z,56.17
2023-02-17T21:36:18.537Z,56.30
2023-02-17T21:38:47.240Z,56.43
2023-02-17T21:41:19.433Z,55.53
2023-02-17T21:44:05.819Z,55.33
2023-02-17T21:46:33.773Z,54.03
2023-02-17T21:49:02.054Z,54.93
2023-02-17T21:51:29.964Z,54.40
2023-02-17T21:53:57.991Z,54.03
2023-02-17T21:56:25.782Z,54.67
2023-02-17T21:58:54.783Z,53.77
2023-02-17T22:01:25.548Z,53.47
2023-02-17T22:03:53.243Z,53.00
2023-02-17T22:06:33.597Z,54.57
2023-02-17T22:09:01.265Z,52.57
2023-02-17T22:11:35.215Z,53.10
2023-02-17T22:14:14.750Z,53.70
2023-02-17T22:16:41.902Z,53.77
2023-02-17T22:19:14.758Z,53.73
2023-02-17T22:21:43.203Z,52.80
2023-02-17T22:24:10.908Z,53.40
2023-02-17T22:26:38.357Z,53.53
2023-02-17T22:29:05.725Z,53.60
2023-02-17T22:31:33.961Z,53.73
2023-02-17T22:34:06.453Z,54.03
2023-02-17T22:36:35.996Z,53.57
2023-02-17T22:39:06.086Z,54.43
2023-02-17T22:41:34.626Z,54.67
2023-02-17T22:44:03.126Z,52.97
2023-02-17T22:46:30.739Z,53.60
2023-02-17T22:48:58.800Z,53.27
2023-02-17T22:51:37.494Z,52.57
2023-02-17T22:54:05.742Z,52.30
2023-02-17T22:56:33.444Z,52.60
2023-02-17T22:59:03.820Z,52.17
2023-02-17T23:01:34.063Z,52.73
2023-02-17T23:04:02.005Z,52.33
2023-02-17T23:06:33.357Z,52.40
2023-02-17T23:09:01.881Z,52.67
2023-02-17T23:11:54.516Z,52.13
2023-02-17T23:14:28.585Z,52.63
2023-02-17T23:17:10.645Z,51.57
2023-02-17T23:19:42.274Z,51.73
2023-02-17T23:22:16.148Z,50.83
2023-02-17T23:24:47.822Z,51.80
2023-02-17T23:27:15.718Z,51.20
2023-02-17T23:29:43.146Z,51.10
2023-02-17T23:32:10.531Z,50.73
2023-02-17T23:34:38.636Z,51.13
2023-02-17T23:37:06.022Z,50.97
2023-02-17T23:39:37.958Z,51.00
2023-02-17T23:42:05.195Z,51.80
2023-02-17T23:44:32.221Z,51.17
2023-02-17T23:46:59.393Z,51.00
2023-02-17T23:49:26.517Z,51.50
2023-02-17T23:51:53.667Z,50.93
2023-02-17T23:54:21.089Z,51.50
2023-02-17T23:56:48.166Z,50.73
2023-02-17T23:59:15.590Z,50.73
